Skip Navigation LinksHome page > Weather > Current weather Skip Navigation Links

Current Weather

Chicago Executive, Wheeling, Ill.

For information only: do not use for flight planning or navigation.
Latest weather
Observation time Friday, February 21, 2020 2:52 AM CST
Local time Friday, February 21, 2020 3:04 AM CST
Flight conditions Visual Meteorological Conditions
Winds
Wind direction West-Southwest (250°)
Wind speed 6 mph
Visibility 10 mi.
Sky condition
Ceiling unlimited
Sky clear
Temperature 13°F
Dewpoint 0°F
Altimeter 30.62 in.Hg
Pressure change last 3 hours0.03 in.Hg
Pressure falling more slowly
Derived measurements
Relative humidity 55%
Wind chill 4°F
Density altitude -3338 ft.
Sea-level pressure 30.66 in.Hg
Remarks
Fully automated report.
Automated weather observing station with precipitation discriminator.
METAR KPWK 210852Z AUTO 25005KT 10SM CLR M11/M18 A3062 RMK AO2 SLP382 T11061178 56010

Settings

Location code

InnerDrive.Weather 4.0.6770.0 Release CLR 4.0.30319.42000
Copyright ©2018 Inner Drive Technology. All rights reserved. Portions Copyright ©1986-2018 David Braverman.

Find weather

Site navigation


Skip Navigation Links

Place info

Page info

PayPal - The safer, easier way to pay online!

Return home.

Copyright ©2020 Inner Drive Technology. Purveyors of fine, hand-crafted computer software. Page printed 2020-02-21T09:04:56 UTC.